Time;durP1;ratioP1;P1;durP2;ratioP2;P2;SDS_P1;SDS_P2;PMS_P1;PMS_P2;Temp;Humidity;BMP_temperature;BMP_pressure;BME280_temperature;BME280_humidity;BME280_pressure;Samples;Min_cycle;Max_cycle;Signal;HPM_P1;HPM_P2
2021/10/24 00:02:06;;;;;;;1.58;1.05;;;;;;;10.48;62.50;100587.13;4986059;28;20047;-49
2021/10/24 00:04:33;;;;;;;2.70;0.93;;;;;;;10.51;62.31;100584.53;4987270;28;20058;-51
2021/10/24 00:07:00;;;;;;;1.05;0.90;;;;;;;10.46;62.64;100580.19;4992527;28;20533;-49
2021/10/24 00:09:27;;;;;;;2.40;0.70;;;;;;;10.49;62.63;100586.25;4988179;28;20052;-52
2021/10/24 00:11:59;;;;;;;2.63;0.73;;;;;;;10.49;61.84;100596.63;4982853;28;20065;-49
2021/10/24 00:14:28;;;;;;;4.63;1.20;;;;;;;10.52;61.84;100600.94;4984753;28;20442;-48
2021/10/24 00:16:56;;;;;;;2.42;0.98;;;;;;;10.53;62.49;100589.72;4991466;28;20050;-49
2021/10/24 00:19:24;;;;;;;2.70;0.70;;;;;;;10.56;62.00;100591.47;4991244;28;20056;-52
2021/10/24 00:21:52;;;;;;;2.60;0.65;;;;;;;10.50;61.75;100582.81;4990745;28;20157;-51
2021/10/24 00:24:20;;;;;;;1.25;0.73;;;;;;;10.56;62.15;100586.28;4988543;28;20050;-49
2021/10/24 00:26:46;;;;;;;2.47;0.55;;;;;;;10.58;61.79;100582.00;4989912;28;20053;-49
2021/10/24 00:29:13;;;;;;;1.50;0.73;;;;;;;10.58;62.20;100582.00;4991932;28;20050;-51
2021/10/24 00:31:41;;;;;;;2.13;1.05;;;;;;;10.56;61.87;100584.56;4988602;28;20553;-49
2021/10/24 00:34:08;;;;;;;1.70;0.80;;;;;;;10.61;62.07;100584.59;4993670;28;20050;-52
2021/10/24 00:36:34;;;;;;;4.05;0.50;;;;;;;10.61;62.06;100574.25;4990896;28;20104;-48
2021/10/24 00:39:01;;;;;;;2.35;0.85;;;;;;;10.59;61.67;100560.41;4986400;28;20050;-49
2021/10/24 00:41:30;;;;;;;1.00;0.65;;;;;;;10.60;62.23;100559.56;4987414;28;20097;-50
2021/10/24 00:43:57;;;;;;;2.70;0.80;;;;;;;10.59;61.48;100550.03;4990976;28;20054;-49
2021/10/24 00:46:24;;;;;;;2.40;1.10;;;;;;;10.59;61.04;100552.63;4991231;28;20425;-50
2021/10/24 00:48:59;;;;;;;2.20;0.47;;;;;;;10.61;61.92;100549.19;4993782;28;20090;-52
2021/10/24 00:51:25;;;;;;;2.40;0.55;;;;;;;10.61;60.95;100551.78;4988548;28;20054;-49
2021/10/24 00:53:53;;;;;;;2.55;0.93;;;;;;;10.59;61.25;100544.88;4991309;28;20049;-49
2021/10/24 00:56:21;;;;;;;1.95;0.93;;;;;;;10.60;62.02;100546.63;4995554;28;20108;-49
2021/10/24 00:58:50;;;;;;;0.80;0.52;;;;;;;10.59;61.48;100550.94;4990448;28;20050;-49
2021/10/24 01:01:17;;;;;;;3.58;0.75;;;;;;;10.57;62.13;100546.59;5001502;28;20061;-48
2021/10/24 01:03:44;;;;;;;4.75;0.77;;;;;;;10.60;61.97;100534.50;4989984;28;20060;-50
2021/10/24 01:06:11;;;;;;;3.40;1.23;;;;;;;10.60;61.88;100531.06;4989231;28;20050;-49
2021/10/24 01:08:39;;;;;;;4.35;0.75;;;;;;;10.58;61.66;100538.84;4984249;28;20046;-48
2021/10/24 01:11:06;;;;;;;2.55;0.73;;;;;;;10.59;61.69;100529.31;4990445;28;20050;-48
2021/10/24 01:13:33;;;;;;;1.23;0.50;;;;;;;10.57;61.88;100528.47;4984787;28;20050;-48
2021/10/24 01:16:13;;;;;;;1.25;0.90;;;;;;;10.52;62.52;100529.31;4990485;28;20058;-48
2021/10/24 01:18:40;;;;;;;1.42;0.82;;;;;;;10.52;62.54;100524.13;4990081;28;20133;-50
2021/10/24 01:21:08;;;;;;;1.70;1.08;;;;;;;10.51;62.35;100521.53;4989047;28;20051;-49
2021/10/24 01:23:35;;;;;;;1.50;0.80;;;;;;;10.47;62.52;100515.44;4989775;28;20047;-48
2021/10/24 01:26:04;;;;;;;1.55;0.82;;;;;;;10.47;62.33;100515.44;4988925;28;20100;-49
2021/10/24 01:28:31;;;;;;;2.83;1.08;;;;;;;10.49;62.71;100518.94;4988194;28;20105;-48
2021/10/24 01:30:58;;;;;;;1.73;0.95;;;;;;;10.49;62.99;100513.75;4989749;28;20046;-49
2021/10/24 01:33:24;;;;;;;2.38;1.23;;;;;;;10.52;62.92;100513.78;4992429;28;20105;-51
2021/10/24 01:35:57;;;;;;;2.83;0.77;;;;;;;10.49;62.97;100503.38;4992232;28;20050;-49
2021/10/24 01:38:24;;;;;;;1.20;0.80;;;;;;;10.52;63.10;100506.00;4983904;28;20080;-49
2021/10/24 01:40:53;;;;;;;4.93;1.02;;;;;;;10.52;63.25;100503.41;4992995;28;20046;-49
2021/10/24 01:43:21;;;;;;;3.03;0.95;;;;;;;10.53;62.59;100493.91;4988591;28;20077;-49
2021/10/24 01:45:48;;;;;;;3.08;0.80;;;;;;;10.50;62.90;100499.94;4987183;28;20111;-51
2021/10/24 01:48:16;;;;;;;1.88;0.95;;;;;;;10.47;63.28;100489.56;4988986;28;20050;-52
2021/10/24 01:50:44;;;;;;;1.63;0.60;;;;;;;10.48;63.62;100480.94;4986487;28;20046;-49
2021/10/24 01:53:15;;;;;;;1.40;0.98;;;;;;;10.48;63.33;100480.94;4993144;28;20473;-49
2021/10/24 01:55:42;;;;;;;1.15;0.70;;;;;;;10.49;63.81;100482.66;4989621;28;20050;-52
2021/10/24 01:58:09;;;;;;;6.82;1.35;;;;;;;10.49;63.37;100471.44;4992590;28;20481;-49
2021/10/24 02:00:36;;;;;;;1.92;0.65;;;;;;;10.48;64.21;100465.41;4994035;28;20051;-50
2021/10/24 02:03:03;;;;;;;2.92;0.77;;;;;;;10.45;63.89;100461.94;4987153;28;20042;-51
2021/10/24 02:05:29;;;;;;;1.83;1.38;;;;;;;10.46;63.91;100461.94;4986745;28;20050;-49
2021/10/24 02:07:56;;;;;;;2.97;0.93;;;;;;;10.48;64.02;100455.06;4990691;28;20117;-51
2021/10/24 02:10:23;;;;;;;1.40;0.70;;;;;;;10.47;64.15;100452.44;4996349;28;20054;-52
2021/10/24 02:12:49;;;;;;;2.78;1.15;;;;;;;10.46;64.26;100456.75;4992568;28;20046;-48
2021/10/24 02:15:16;;;;;;;6.50;1.33;;;;;;;10.46;64.26;100445.53;4990197;28;20043;-51
2021/10/24 02:17:43;;;;;;;2.50;1.08;;;;;;;10.44;64.81;100432.56;4998181;28;20124;-51
2021/10/24 02:20:10;;;;;;;2.72;1.13;;;;;;;10.43;64.72;100433.41;4990760;28;20104;-50
2021/10/24 02:22:38;;;;;;;2.58;1.00;;;;;;;10.44;64.52;100432.56;4991634;28;20136;-49
2021/10/24 02:25:05;;;;;;;2.17;0.93;;;;;;;10.43;64.76;100433.41;4991487;28;20061;-53
2021/10/24 02:27:32;;;;;;;1.83;0.95;;;;;;;10.44;63.98;100427.38;4996564;28;20059;-51
2021/10/24 02:30:00;;;;;;;3.83;0.98;;;;;;;10.43;64.54;100429.97;4990503;28;20046;-51
2021/10/24 02:32:26;;;;;;;2.88;1.08;;;;;;;10.43;64.37;100428.22;4987491;28;20046;-49
2021/10/24 02:34:53;;;;;;;2.28;1.20;;;;;;;10.48;64.63;100423.97;4990428;28;20104;-49
2021/10/24 02:37:20;;;;;;;4.13;0.93;;;;;;;10.46;64.56;100420.50;4988612;28;20054;-48
2021/10/24 02:39:46;;;;;;;1.60;0.82;;;;;;;10.45;64.26;100410.13;5004945;28;20050;-50
2021/10/24 02:42:13;;;;;;;2.42;0.98;;;;;;;10.44;64.43;100411.84;4993025;28;20046;-52
2021/10/24 02:44:40;;;;;;;5.30;1.48;;;;;;;10.43;65.34;100410.09;4987226;28;20491;-49
2021/10/24 02:47:06;;;;;;;2.65;1.58;;;;;;;10.42;64.56;100408.38;4989327;28;20480;-49
2021/10/24 02:49:33;;;;;;;1.65;1.13;;;;;;;10.44;64.26;100405.78;4989301;28;20056;-49
2021/10/24 02:52:01;;;;;;;4.53;1.38;;;;;;;10.43;64.74;100410.09;4988317;28;20132;-51
2021/10/24 02:54:28;;;;;;;1.67;0.88;;;;;;;10.41;64.71;100398.88;4991446;28;20046;-48
2021/10/24 02:56:55;;;;;;;4.03;1.25;;;;;;;10.39;64.34;100400.59;4987507;28;20105;-48
2021/10/24 02:59:22;;;;;;;5.82;0.98;;;;;;;10.40;64.03;100404.91;4998535;28;20054;-48
2021/10/24 03:01:49;;;;;;;3.85;1.13;;;;;;;10.40;64.80;100404.91;4986328;28;20494;-49
2021/10/24 03:04:16;;;;;;;3.88;1.10;;;;;;;10.38;64.82;100401.44;4994067;28;20046;-49
2021/10/24 03:06:42;;;;;;;3.28;1.02;;;;;;;10.35;64.87;100391.94;4988625;28;20046;-49
2021/10/24 03:09:09;;;;;;;2.72;1.08;;;;;;;10.34;64.93;100386.75;4986675;28;20395;-48
2021/10/24 03:11:35;;;;;;;5.80;1.23;;;;;;;10.34;64.97;100389.34;4989619;28;20469;-49
2021/10/24 03:14:03;;;;;;;4.47;1.17;;;;;;;10.36;64.62;100387.63;4991325;28;20054;-49
2021/10/24 03:16:31;;;;;;;2.35;0.90;;;;;;;10.35;65.00;100393.66;4987312;28;20066;-49
2021/10/24 03:18:57;;;;;;;3.88;0.90;;;;;;;10.34;65.18;100397.13;4990427;28;20112;-49
2021/10/24 03:21:24;;;;;;;5.97;1.10;;;;;;;10.31;65.31;100389.34;4995010;28;20108;-50
2021/10/24 03:23:51;;;;;;;5.72;0.82;;;;;;;10.35;65.37;100385.91;4987525;28;20053;-51
2021/10/24 03:26:18;;;;;;;1.70;0.95;;;;;;;10.32;64.74;100383.28;4991532;28;20096;-49
2021/10/24 03:28:45;;;;;;;4.25;0.85;;;;;;;10.31;64.89;100379.84;4997302;28;20046;-51
2021/10/24 03:31:11;;;;;;;1.55;0.98;;;;;;;10.35;64.55;100365.19;4991694;28;20525;-49
2021/10/24 03:33:38;;;;;;;2.50;0.90;;;;;;;10.35;65.26;100367.78;4990536;28;20042;-49
2021/10/24 03:36:05;;;;;;;1.55;0.75;;;;;;;10.34;64.80;100366.91;4986406;28;20069;-50
2021/10/24 03:38:32;;;;;;;2.83;1.13;;;;;;;10.33;64.81;100361.75;4992155;28;20054;-52
2021/10/24 03:40:59;;;;;;;2.88;1.95;;;;;;;10.28;65.03;100360.00;4988772;28;20054;-49
2021/10/24 03:43:26;;;;;;;3.42;1.35;;;;;;;10.32;65.07;100365.16;4994273;28;20046;-49
2021/10/24 03:45:53;;;;;;;4.53;1.25;;;;;;;10.33;65.07;100364.34;4985910;28;20399;-49
2021/10/24 03:48:20;;;;;;;4.05;0.90;;;;;;;10.32;64.80;100354.81;4986964;28;20052;-49
2021/10/24 03:50:47;;;;;;;3.05;1.13;;;;;;;10.27;65.13;100350.47;4997278;28;20376;-49
2021/10/24 03:53:15;;;;;;;1.77;0.73;;;;;;;10.24;64.80;100347.03;4991576;28;20096;-49
2021/10/24 03:55:42;;;;;;;3.63;1.05;;;;;;;10.24;65.25;100347.88;4995719;28;20050;-49
2021/10/24 03:58:08;;;;;;;2.25;1.27;;;;;;;10.23;65.59;100351.34;4991833;28;20057;-49
2021/10/24 04:00:35;;;;;;;2.05;1.02;;;;;;;10.22;65.19;100357.38;4990920;28;20042;-52
2021/10/24 04:03:05;;;;;;;2.22;1.08;;;;;;;10.22;65.17;100359.09;4990521;28;20050;-48
2021/10/24 04:05:33;;;;;;;2.22;1.38;;;;;;;10.21;65.01;100357.38;4996648;28;20514;-49
2021/10/24 04:08:00;;;;;;;4.20;1.40;;;;;;;10.18;65.37;100353.06;4995863;28;20050;-51
2021/10/24 04:10:28;;;;;;;1.75;0.93;;;;;;;10.18;65.08;100344.41;4990692;28;20462;-50
2021/10/24 04:12:55;;;;;;;2.75;1.13;;;;;;;10.11;65.36;100340.94;4995803;28;20069;-49
2021/10/24 04:15:23;;;;;;;2.08;1.00;;;;;;;10.09;65.23;100342.66;4982853;28;20058;-49
2021/10/24 04:17:50;;;;;;;2.28;0.75;;;;;;;10.07;65.17;100345.25;4988338;28;20121;-52
2021/10/24 04:20:19;;;;;;;1.70;0.93;;;;;;;10.03;65.72;100341.78;4991492;28;20113;-49
2021/10/24 04:22:47;;;;;;;3.08;0.85;;;;;;;10.03;65.17;100339.19;4989899;28;20046;-51
2021/10/24 04:25:14;;;;;;;1.98;1.00;;;;;;;9.99;65.74;100342.63;4991357;28;20455;-49
2021/10/24 04:27:41;;;;;;;4.25;1.27;;;;;;;9.98;65.32;100343.50;4988898;28;20561;-51
2021/10/24 04:30:10;;;;;;;4.78;0.95;;;;;;;9.94;65.58;100338.28;4985750;28;20042;-50
2021/10/24 04:32:39;;;;;;;3.33;0.95;;;;;;;9.94;65.68;100349.50;4984446;28;20097;-49
2021/10/24 04:35:06;;;;;;;3.40;1.48;;;;;;;9.96;65.33;100341.75;4994992;28;20128;-49
2021/10/24 04:37:33;;;;;;;3.97;1.10;;;;;;;9.93;65.57;100342.59;4996615;28;20084;-51
2021/10/24 04:39:59;;;;;;;4.30;1.15;;;;;;;9.93;65.89;100340.00;4987459;28;20047;-48
2021/10/24 04:42:26;;;;;;;4.82;1.33;;;;;;;9.93;65.55;100334.81;4995064;28;20097;-52
2021/10/24 04:44:52;;;;;;;4.93;0.90;;;;;;;9.93;65.27;100327.06;4987427;28;20069;-50
2021/10/24 04:47:19;;;;;;;4.35;0.93;;;;;;;9.87;65.76;100321.88;4983778;28;20085;-50
2021/10/24 04:49:46;;;;;;;4.82;1.05;;;;;;;9.87;65.93;100332.22;4991317;28;20046;-48
2021/10/24 04:52:12;;;;;;;2.15;1.10;;;;;;;9.86;66.02;100325.31;4990954;28;20046;-49
2021/10/24 04:54:39;;;;;;;3.70;0.70;;;;;;;9.85;65.84;100323.56;4994330;28;20038;-49
2021/10/24 04:57:06;;;;;;;3.45;1.08;;;;;;;9.89;66.02;100320.13;4989287;28;20050;-48
2021/10/24 04:59:33;;;;;;;2.25;0.85;;;;;;;9.89;65.99;100320.13;4987447;28;20675;-50
2021/10/24 05:02:00;;;;;;;5.07;0.80;;;;;;;9.92;65.56;100314.97;4985762;28;20062;-51
2021/10/24 05:04:26;;;;;;;3.70;1.10;;;;;;;9.93;65.31;100298.59;4994868;28;20121;-48
2021/10/24 05:06:53;;;;;;;4.72;1.10;;;;;;;9.93;65.90;100305.50;4990111;28;20082;-52
2021/10/24 05:09:20;;;;;;;3.65;1.58;;;;;;;9.95;66.31;100302.06;4986413;28;20146;-48
2021/10/24 05:11:46;;;;;;;3.88;1.33;;;;;;;9.94;65.65;100295.16;4996167;28;20050;-48
2021/10/24 05:14:13;;;;;;;3.95;1.38;;;;;;;9.92;65.62;100299.47;4988431;28;20046;-50
2021/10/24 05:16:40;;;;;;;4.07;1.00;;;;;;;9.93;65.47;100296.00;4986119;28;20046;-49
2021/10/24 05:19:07;;;;;;;4.40;0.90;;;;;;;9.93;65.68;100296.00;4991728;28;20049;-50
2021/10/24 05:21:33;;;;;;;3.92;1.35;;;;;;;9.92;65.54;100288.25;4990496;28;20050;-48
2021/10/24 05:24:00;;;;;;;6.55;1.45;;;;;;;9.85;65.59;100283.06;4998348;28;20051;-50
2021/10/24 05:26:27;;;;;;;2.53;1.23;;;;;;;9.88;65.97;100287.38;4989415;28;20302;-50
2021/10/24 05:28:53;;;;;;;4.35;1.65;;;;;;;9.82;65.27;100292.50;4988803;28;20042;-49
2021/10/24 05:31:20;;;;;;;4.22;1.33;;;;;;;9.79;65.90;100282.19;4987743;28;20105;-48
2021/10/24 05:33:47;;;;;;;2.70;1.25;;;;;;;9.80;65.08;100276.13;4999548;28;20042;-48
2021/10/24 05:36:14;;;;;;;4.72;1.52;;;;;;;9.81;65.84;100275.25;4988869;28;20042;-52
2021/10/24 05:38:40;;;;;;;3.00;1.10;;;;;;;9.77;65.86;100275.25;4988845;28;20042;-50
2021/10/24 05:41:07;;;;;;;1.45;0.93;;;;;;;9.79;66.08;100269.25;4990557;28;20373;-49
2021/10/24 05:43:34;;;;;;;2.78;1.50;;;;;;;9.77;65.38;100267.50;4992984;28;20054;-48
2021/10/24 05:46:01;;;;;;;5.22;1.33;;;;;;;9.79;65.85;100261.47;4992147;28;20061;-51
2021/10/24 05:48:28;;;;;;;3.72;1.08;;;;;;;9.80;65.75;100261.50;4986379;28;20498;-50
2021/10/24 05:50:55;;;;;;;4.47;1.20;;;;;;;9.81;65.90;100275.25;4995697;28;20054;-49
2021/10/24 05:53:22;;;;;;;4.18;1.10;;;;;;;9.81;65.69;100270.09;4993811;28;20046;-48
2021/10/24 05:55:49;;;;;;;2.10;1.20;;;;;;;9.82;65.59;100275.28;4990616;28;20046;-49
2021/10/24 05:58:16;;;;;;;3.20;1.10;;;;;;;9.84;65.63;100273.56;4993599;28;20050;-49
2021/10/24 06:00:42;;;;;;;3.05;1.08;;;;;;;9.86;65.85;100268.41;4990739;28;20061;-50
2021/10/24 06:03:09;;;;;;;5.35;1.30;;;;;;;9.85;65.89;100261.47;4994587;28;20434;-49
2021/10/24 06:05:36;;;;;;;4.25;1.40;;;;;;;9.84;65.64;100264.94;4991369;28;20498;-49
2021/10/24 06:08:03;;;;;;;2.95;1.20;;;;;;;9.82;65.59;100257.16;4995222;28;20046;-49
2021/10/24 06:10:33;;;;;;;5.28;1.58;;;;;;;9.84;65.38;100264.94;4991319;28;20101;-49
2021/10/24 06:13:03;;;;;;;4.45;1.58;;;;;;;9.81;65.45;100259.75;4991785;28;20054;-50
2021/10/24 06:15:30;;;;;;;2.03;1.15;;;;;;;9.81;65.19;100259.75;4991504;28;20042;-48
2021/10/24 06:17:57;;;;;;;4.85;1.38;;;;;;;9.81;65.22;100254.56;4992967;28;20096;-49
2021/10/24 06:20:24;;;;;;;1.63;1.05;;;;;;;9.85;65.33;100245.97;4998376;28;20706;-49
2021/10/24 06:22:51;;;;;;;4.13;1.75;;;;;;;9.83;65.42;100247.69;4996429;28;20108;-48
2021/10/24 06:25:18;;;;;;;2.75;1.23;;;;;;;9.81;65.50;100233.88;4989145;28;20197;-49
2021/10/24 06:27:45;;;;;;;2.17;1.00;;;;;;;9.84;65.68;100241.66;4991084;28;20102;-49
2021/10/24 06:30:13;;;;;;;4.32;0.90;;;;;;;9.80;65.54;100237.34;4996528;28;20585;-50
2021/10/24 06:32:40;;;;;;;3.17;1.23;;;;;;;9.82;65.29;100227.84;4999645;28;20072;-49
2021/10/24 06:35:07;;;;;;;3.67;0.95;;;;;;;9.85;65.76;100231.31;4990886;28;20503;-52
2021/10/24 06:37:39;;;;;;;3.30;1.52;;;;;;;9.85;65.42;100230.44;4992977;28;20121;-51
2021/10/24 06:40:07;;;;;;;5.22;1.20;;;;;;;9.88;65.05;100225.28;4989278;28;20064;-52
2021/10/24 06:42:35;;;;;;;4.05;1.35;;;;;;;9.84;65.42;100223.53;4996892;28;20050;-50
2021/10/24 06:45:04;;;;;;;5.50;1.27;;;;;;;9.85;64.98;100226.13;4990821;28;20050;-52
2021/10/24 06:47:30;;;;;;;3.95;1.13;;;;;;;9.84;65.33;100213.19;4992860;28;20097;-49
2021/10/24 06:49:57;;;;;;;2.38;1.00;;;;;;;9.81;65.27;100219.22;4989623;28;20054;-50
2021/10/24 06:52:25;;;;;;;3.38;1.27;;;;;;;9.83;65.27;100221.81;4994837;28;20078;-51
2021/10/24 06:54:51;;;;;;;1.77;1.10;;;;;;;9.81;65.41;100226.13;4991419;28;20089;-49
2021/10/24 06:57:21;;;;;;;2.88;1.45;;;;;;;9.80;65.11;100230.44;4989664;28;20108;-48
2021/10/24 06:59:48;;;;;;;4.38;1.30;;;;;;;9.82;65.23;100230.41;4997312;28;20050;-49
2021/10/24 07:02:17;;;;;;;1.92;1.30;;;;;;;9.80;65.40;100226.97;4992025;28;20054;-48
2021/10/24 07:04:44;;;;;;;2.45;1.23;;;;;;;9.80;65.46;100235.63;4995948;28;20038;-52
2021/10/24 07:07:11;;;;;;;4.25;1.00;;;;;;;9.81;65.30;100239.06;4988261;28;20101;-49
2021/10/24 07:09:38;;;;;;;6.40;1.52;;;;;;;9.81;65.50;100233.88;4990298;28;20051;-49
2021/10/24 07:12:09;;;;;;;4.57;1.00;;;;;;;9.87;65.13;100244.25;4988051;28;20061;-50
2021/10/24 07:14:35;;;;;;;2.95;1.02;;;;;;;9.89;65.13;100252.88;4987746;28;20050;-51
2021/10/24 07:17:02;;;;;;;3.55;1.10;;;;;;;9.94;65.09;100250.31;4995256;28;20080;-49
2021/10/24 07:19:29;;;;;;;3.70;1.25;;;;;;;9.95;64.77;100252.91;4985111;28;20054;-48
2021/10/24 07:21:55;;;;;;;4.60;1.15;;;;;;;9.93;65.01;100248.59;5005397;28;20112;-49
2021/10/24 07:24:22;;;;;;;4.10;1.10;;;;;;;9.92;65.04;100252.88;4983640;28;20059;-48
2021/10/24 07:26:48;;;;;;;4.20;1.10;;;;;;;9.93;65.18;100246.84;4990273;28;20530;-48
2021/10/24 07:29:15;;;;;;;1.90;1.20;;;;;;;9.90;65.31;100254.63;4990636;28;20046;-49
2021/10/24 07:31:42;;;;;;;2.72;1.23;;;;;;;9.91;65.27;100256.34;4988854;28;20046;-51
2021/10/24 07:34:09;;;;;;;2.72;0.93;;;;;;;9.92;65.04;100255.47;4988604;28;20475;-48
2021/10/24 07:36:35;;;;;;;4.18;1.13;;;;;;;9.92;64.63;100252.03;4991660;28;20058;-48
2021/10/24 07:39:03;;;;;;;3.55;1.02;;;;;;;9.88;65.55;100249.44;4992816;28;20503;-49
2021/10/24 07:41:30;;;;;;;4.90;1.17;;;;;;;9.88;65.42;100251.16;4994023;28;20449;-48
2021/10/24 07:43:56;;;;;;;4.57;1.52;;;;;;;9.89;65.25;100253.75;4991224;28;20046;-49
2021/10/24 07:46:23;;;;;;;4.95;1.10;;;;;;;9.92;65.34;100237.38;4990292;28;20135;-49
2021/10/24 07:48:52;;;;;;;2.22;1.17;;;;;;;9.91;64.87;100256.34;4984834;28;20058;-48
2021/10/24 07:51:20;;;;;;;4.75;1.25;;;;;;;9.94;65.25;100246.00;4982687;28;20054;-49
2021/10/24 07:53:46;;;;;;;6.88;1.67;;;;;;;9.94;65.24;100253.78;4990844;28;20050;-48
2021/10/24 07:56:13;;;;;;;3.63;1.15;;;;;;;9.99;64.75;100246.88;4990225;28;20046;-50
2021/10/24 07:58:40;;;;;;;5.43;1.17;;;;;;;10.00;64.90;100246.00;4990385;28;20050;-48
2021/10/24 08:01:07;;;;;;;2.38;1.20;;;;;;;10.07;64.72;100240.84;4986035;28;20113;-48
2021/10/24 08:03:34;;;;;;;2.03;1.00;;;;;;;10.05;65.00;100243.44;4991071;28;20105;-51
2021/10/24 08:06:02;;;;;;;3.25;1.27;;;;;;;10.12;64.93;100244.31;4987293;28;20447;-51
2021/10/24 08:08:29;;;;;;;5.43;1.98;;;;;;;10.20;64.61;100237.41;4986567;28;20050;-49
2021/10/24 08:10:55;;;;;;;2.70;1.27;;;;;;;10.23;64.77;100242.63;4986687;28;20525;-49
2021/10/24 08:13:23;;;;;;;3.80;1.58;;;;;;;10.27;64.75;100249.53;4988900;28;20042;-49
2021/10/24 08:15:50;;;;;;;4.45;1.20;;;;;;;10.39;64.62;100258.16;4990574;28;20077;-49
2021/10/24 08:18:17;;;;;;;3.75;1.77;;;;;;;10.43;64.92;100257.31;4983434;28;20065;-48
2021/10/24 08:20:45;;;;;;;8.27;1.45;;;;;;;10.47;64.78;100246.13;4985162;28;20046;-51
2021/10/24 08:23:14;;;;;;;8.27;1.60;;;;;;;10.48;64.86;100252.19;4989608;28;20147;-51
2021/10/24 08:25:41;;;;;;;3.85;1.25;;;;;;;10.53;64.93;100248.72;4997434;28;20054;-51
2021/10/24 08:28:07;;;;;;;6.32;1.02;;;;;;;10.58;64.29;100253.03;4990358;28;20046;-49
2021/10/24 08:30:34;;;;;;;1.80;1.08;;;;;;;10.58;64.79;100250.47;4986898;28;20097;-51
2021/10/24 08:33:01;;;;;;;2.33;1.10;;;;;;;10.62;64.53;100254.78;4986096;28;20054;-49
2021/10/24 08:35:28;;;;;;;3.83;1.40;;;;;;;10.78;65.11;100251.31;4986135;28;20518;-49
2021/10/24 08:37:54;;;;;;;3.45;1.33;;;;;;;11.22;64.59;100253.88;4989460;28;20050;-50
2021/10/24 08:40:21;;;;;;;2.75;1.00;;;;;;;11.53;63.32;100256.38;4985615;28;20058;-49
2021/10/24 08:42:52;;;;;;;2.90;1.45;;;;;;;11.76;63.20;100247.63;4991050;28;20097;-48
2021/10/24 08:45:19;;;;;;;44.72;17.65;;;;;;;12.06;61.92;100256.16;4988656;28;20458;-49
2021/10/24 08:47:46;;;;;;;35.33;16.70;;;;;;;12.32;61.39;100255.16;4987127;28;20521;-52
2021/10/24 08:50:13;;;;;;;60.33;35.22;;;;;;;12.59;60.28;100255.81;4982833;28;20559;-50
2021/10/24 08:52:43;;;;;;;109.50;67.13;;;;;;;13.26;59.50;100256.94;4993706;28;20042;-51
2021/10/24 08:55:10;;;;;;;167.48;99.10;;;;;;;13.87;58.93;100244.13;4991338;28;20129;-49
2021/10/24 08:57:37;;;;;;;321.58;154.85;;;;;;;14.63;57.95;100244.75;4989276;28;20062;-52
2021/10/24 09:00:06;;;;;;;291.02;98.60;;;;;;;15.62;55.64;100241.25;4996438;28;20058;-51
2021/10/24 09:02:59;;;;;;;59.80;28.80;;;;;;;16.47;53.39;100244.63;4985420;28;20104;-52
2021/10/24 09:05:43;;;;;;;180.43;88.85;;;;;;;17.31;52.02;100232.03;4984812;28;20050;-50
2021/10/24 09:08:14;;;;;;;242.90;156.35;;;;;;;18.09;48.38;100235.91;4983597;28;20062;-50
2021/10/24 09:10:43;;;;;;;49.65;35.53;;;;;;;18.59;47.05;100238.72;4987669;28;20078;-50
2021/10/24 09:13:12;;;;;;;78.25;59.17;;;;;;;18.95;46.68;100237.53;4991467;28;20419;-52
2021/10/24 09:16:02;;;;;;;36.45;23.20;;;;;;;19.15;45.31;100228.97;4988549;28;20118;-52
2021/10/24 09:18:37;;;;;;;64.25;45.58;;;;;;;19.50;44.86;100232.09;4982973;28;20054;-51
2021/10/24 09:21:17;;;;;;;110.20;90.45;;;;;;;19.71;43.89;100233.94;4981594;28;20183;-53
2021/10/24 09:23:50;;;;;;;79.97;60.05;;;;;;;20.10;43.69;100241.22;4982325;28;20100;-51
2021/10/24 09:26:29;;;;;;;157.52;132.75;;;;;;;20.49;42.72;100234.44;4987651;28;20538;-52
2021/10/24 09:29:17;;;;;;;60.42;39.67;;;;;;;20.59;41.80;100231.41;4987686;28;20096;-50
2021/10/24 09:31:50;;;;;;;74.60;54.78;;;;;;;21.06;42.71;100233.84;4984181;28;20046;-51
2021/10/24 09:34:21;;;;;;;46.00;31.83;;;;;;;21.19;41.57;100230.66;4985557;28;20061;-54
2021/10/24 09:36:53;;;;;;;81.47;54.65;;;;;;;21.44;41.58;100229.53;4983843;28;20054;-52
2021/10/24 09:39:21;;;;;;;58.63;45.85;;;;;;;21.60;39.98;100234.09;4972337;28;20058;-51
2021/10/24 09:41:48;;;;;;;17.30;14.32;;;;;;;21.75;41.01;100227.31;4978147;28;20458;-55
2021/10/24 09:44:17;;;;;;;65.97;55.92;;;;;;;21.73;40.80;100219.44;4971927;28;20133;-53
2021/10/24 09:46:57;;;;;;;17.58;11.88;;;;;;;21.90;38.16;100225.72;4969774;28;20058;-52
2021/10/24 09:49:25;;;;;;;24.77;20.73;;;;;;;21.81;39.32;100219.09;4973919;28;20065;-51
2021/10/24 09:51:53;;;;;;;87.88;66.45;;;;;;;21.82;40.01;100216.41;4976918;28;20559;-54
2021/10/24 09:54:27;;;;;;;84.10;71.43;;;;;;;21.93;40.11;100215.91;4973523;28;20116;-54
2021/10/24 09:56:54;;;;;;;26.73;19.23;;;;;;;22.31;39.83;100203.53;4979447;28;20105;-53
2021/10/24 09:59:24;;;;;;;46.70;38.60;;;;;;;22.75;39.94;100202.25;4985324;28;20529;-53
2021/10/24 10:01:54;;;;;;;55.20;43.63;;;;;;;23.13;38.17;100205.63;4984356;28;20371;-52
2021/10/24 10:04:24;;;;;;;269.83;217.10;;;;;;;23.13;38.51;100200.34;4986050;28;20129;-52
2021/10/24 10:06:52;;;;;;;105.70;65.22;;;;;;;22.99;37.27;100199.25;4992003;28;20042;-51
2021/10/24 10:09:19;;;;;;;81.05;69.40;;;;;;;22.91;38.85;100198.81;4987710;28;20065;-53
2021/10/24 10:11:53;;;;;;;94.05;83.85;;;;;;;22.46;37.59;100200.13;4991328;28;20055;-54
2021/10/24 10:14:32;;;;;;;114.55;102.50;;;;;;;22.31;38.46;100195.63;4985347;28;20065;-54
2021/10/24 10:17:08;;;;;;;60.80;51.03;;;;;;;22.23;38.27;100190.75;4985709;28;20096;-51
2021/10/24 10:19:39;;;;;;;65.82;50.58;;;;;;;22.17;38.50;100191.91;4994448;28;20061;-51
2021/10/24 10:22:20;;;;;;;30.13;26.15;;;;;;;21.86;38.37;100187.25;4981195;28;20050;-52
2021/10/24 10:24:53;;;;;;;31.75;26.58;;;;;;;21.45;40.22;100189.94;4990824;28;20653;-53
2021/10/24 10:27:28;;;;;;;23.00;15.80;;;;;;;20.46;40.59;100179.31;4988887;28;20049;-55
2021/10/24 10:29:57;;;;;;;54.25;36.75;;;;;;;19.95;41.72;100176.97;4987807;28;20042;-52
2021/10/24 10:32:36;;;;;;;51.50;40.22;;;;;;;19.97;41.96;100176.91;4988030;28;20053;-52
2021/10/24 10:35:17;;;;;;;55.65;47.03;;;;;;;19.85;42.52;100163.31;4986437;28;20097;-51
2021/10/24 10:37:55;;;;;;;68.60;48.33;;;;;;;19.66;42.86;100163.22;4989825;28;20055;-52
2021/10/24 10:40:34;;;;;;;91.40;65.15;;;;;;;19.55;43.95;100160.13;4990720;28;20050;-51
2021/10/24 10:43:09;;;;;;;65.00;55.88;;;;;;;19.23;44.43;100150.81;4988164;28;20054;-51
2021/10/24 10:45:52;;;;;;;160.43;133.80;;;;;;;18.95;44.75;100157.00;4983845;28;20364;-51
2021/10/24 10:48:46;;;;;;;31.35;22.05;;;;;;;18.73;45.43;100157.78;4992015;28;20058;-52
2021/10/24 10:51:25;;;;;;;104.18;91.90;;;;;;;18.48;46.21;100142.88;4987108;28;20050;-51
2021/10/24 10:54:04;;;;;;;8.43;5.95;;;;;;;18.28;46.24;100146.22;4984294;28;20109;-51
2021/10/24 10:56:56;;;;;;;149.50;122.57;;;;;;;17.92;46.01;100155.19;4988424;28;20052;-54
2021/10/24 10:59:33;;;;;;;86.80;70.68;;;;;;;17.61;47.21;100148.28;4985309;28;20113;-52
2021/10/24 11:02:22;;;;;;;119.75;87.35;;;;;;;17.35;48.03;100149.91;4980099;28;20716;-52
2021/10/24 11:04:51;;;;;;;15.93;8.85;;;;;;;17.18;48.12;100148.66;4988770;28;20082;-51
2021/10/24 11:07:41;;;;;;;377.85;287.02;;;;;;;16.91;49.26;100150.22;4990194;28;20097;-52
2021/10/24 11:10:30;;;;;;;222.13;140.65;;;;;;;16.88;49.49;100156.41;4987261;28;20046;-51
2021/10/24 11:12:59;;;;;;;373.38;253.02;;;;;;;16.65;49.50;100160.50;4989736;28;20116;-51
2021/10/24 11:15:28;;;;;;;120.47;89.82;;;;;;;16.67;50.04;100152.63;4989369;28;20516;-52
2021/10/24 11:17:58;;;;;;;115.20;80.85;;;;;;;16.65;50.41;100160.50;4987621;28;20045;-53
2021/10/24 11:20:27;;;;;;;24.92;19.88;;;;;;;16.55;50.52;100170.34;4987238;28;20062;-52
2021/10/24 11:23:03;;;;;;;40.63;30.73;;;;;;;16.60;50.76;100167.63;4985312;28;20050;-53
2021/10/24 11:25:47;;;;;;;12.32;6.82;;;;;;;16.37;50.87;100170.81;4989312;28;20049;-50
2021/10/24 11:28:19;;;;;;;72.78;46.78;;;;;;;16.12;51.36;100167.06;4992952;28;20054;-54
2021/10/24 11:31:08;;;;;;;47.47;33.00;;;;;;;15.96;51.91;100160.47;4987051;28;20070;-51
2021/10/24 11:33:47;;;;;;;44.20;25.63;;;;;;;16.02;52.25;100152.50;4988576;28;20486;-50